sensor_id;sensor_type;location;lat;lon;timestamp;P1;durP1;ratioP1;P2;durP2;ratioP2
76417;SDS011;65250;47.602;19.002;2023-03-20T00:01:22;16.83;;;7.57;;
76417;SDS011;65250;47.602;19.002;2023-03-20T00:03:51;14.00;;;8.73;;
76417;SDS011;65250;47.602;19.002;2023-03-20T00:06:19;14.77;;;7.97;;
76417;SDS011;65250;47.602;19.002;2023-03-20T00:08:47;15.27;;;7.60;;
76417;SDS011;65250;47.602;19.002;2023-03-20T00:11:38;12.18;;;7.15;;
76417;SDS011;65250;47.602;19.002;2023-03-20T00:14:03;14.13;;;7.80;;
76417;SDS011;65250;47.602;19.002;2023-03-20T00:16:32;12.40;;;7.53;;
76417;SDS011;65250;47.602;19.002;2023-03-20T00:19:01;12.10;;;7.20;;
76417;SDS011;65250;47.602;19.002;2023-03-20T00:21:29;13.88;;;7.22;;
76417;SDS011;65250;47.602;19.002;2023-03-20T00:23:56;12.52;;;7.03;;
76417;SDS011;65250;47.602;19.002;2023-03-20T00:26:27;15.10;;;7.80;;
76417;SDS011;65250;47.602;19.002;2023-03-20T00:28:58;11.18;;;6.78;;
76417;SDS011;65250;47.602;19.002;2023-03-20T00:34:05;12.57;;;7.00;;
76417;SDS011;65250;47.602;19.002;2023-03-20T00:36:36;12.88;;;6.88;;
76417;SDS011;65250;47.602;19.002;2023-03-20T00:39:03;12.23;;;7.40;;
76417;SDS011;65250;47.602;19.002;2023-03-20T00:44:20;12.18;;;6.88;;
76417;SDS011;65250;47.602;19.002;2023-03-20T00:46:57;12.13;;;6.72;;
76417;SDS011;65250;47.602;19.002;2023-03-20T00:49:32;15.82;;;7.82;;
76417;SDS011;65250;47.602;19.002;2023-03-20T00:52:00;12.47;;;7.60;;
76417;SDS011;65250;47.602;19.002;2023-03-20T00:54:27;12.55;;;7.55;;
76417;SDS011;65250;47.602;19.002;2023-03-20T00:57:05;12.23;;;7.35;;
76417;SDS011;65250;47.602;19.002;2023-03-20T00:59:35;17.10;;;7.75;;
76417;SDS011;65250;47.602;19.002;2023-03-20T01:02:04;14.52;;;7.47;;
76417;SDS011;65250;47.602;19.002;2023-03-20T01:04:36;12.37;;;7.57;;
76417;SDS011;65250;47.602;19.002;2023-03-20T01:07:04;14.38;;;7.70;;
76417;SDS011;65250;47.602;19.002;2023-03-20T01:09:32;11.98;;;7.32;;
76417;SDS011;65250;47.602;19.002;2023-03-20T01:11:59;12.13;;;7.00;;
76417;SDS011;65250;47.602;19.002;2023-03-20T01:14:26;13.45;;;7.93;;
76417;SDS011;65250;47.602;19.002;2023-03-20T01:16:53;12.10;;;6.83;;
76417;SDS011;65250;47.602;19.002;2023-03-20T01:19:21;13.38;;;7.53;;
76417;SDS011;65250;47.602;19.002;2023-03-20T01:21:48;14.52;;;7.43;;
76417;SDS011;65250;47.602;19.002;2023-03-20T01:24:14;13.35;;;7.18;;
76417;SDS011;65250;47.602;19.002;2023-03-20T01:26:42;12.15;;;7.18;;
76417;SDS011;65250;47.602;19.002;2023-03-20T01:29:33;15.27;;;7.30;;
76417;SDS011;65250;47.602;19.002;2023-03-20T01:31:57;13.52;;;6.97;;
76417;SDS011;65250;47.602;19.002;2023-03-20T01:34:23;12.82;;;7.32;;
76417;SDS011;65250;47.602;19.002;2023-03-20T01:36:51;13.05;;;7.60;;
76417;SDS011;65250;47.602;19.002;2023-03-20T01:39:20;13.77;;;7.35;;
76417;SDS011;65250;47.602;19.002;2023-03-20T01:41:49;12.13;;;6.67;;
76417;SDS011;65250;47.602;19.002;2023-03-20T01:44:25;14.10;;;7.82;;
76417;SDS011;65250;47.602;19.002;2023-03-20T01:46:54;12.48;;;6.78;;
76417;SDS011;65250;47.602;19.002;2023-03-20T01:51:48;12.85;;;6.78;;
76417;SDS011;65250;47.602;19.002;2023-03-20T01:59:58;13.35;;;7.00;;
76417;SDS011;65250;47.602;19.002;2023-03-20T02:02:25;17.95;;;7.15;;
76417;SDS011;65250;47.602;19.002;2023-03-20T02:04:55;10.20;;;5.80;;
76417;SDS011;65250;47.602;19.002;2023-03-20T02:07:24;10.73;;;6.17;;
76417;SDS011;65250;47.602;19.002;2023-03-20T02:09:51;10.55;;;6.47;;
76417;SDS011;65250;47.602;19.002;2023-03-20T02:12:18;11.27;;;6.28;;
76417;SDS011;65250;47.602;19.002;2023-03-20T02:14:45;10.82;;;6.32;;
76417;SDS011;65250;47.602;19.002;2023-03-20T02:17:13;9.88;;;5.75;;
76417;SDS011;65250;47.602;19.002;2023-03-20T02:44:43;11.27;;;6.28;;
76417;SDS011;65250;47.602;19.002;2023-03-20T02:47:22;11.60;;;7.60;;
76417;SDS011;65250;47.602;19.002;2023-03-20T02:50:08;14.13;;;6.32;;
76417;SDS011;65250;47.602;19.002;2023-03-20T03:01:02;13.03;;;6.67;;
76417;SDS011;65250;47.602;19.002;2023-03-20T03:03:39;14.80;;;7.22;;
76417;SDS011;65250;47.602;19.002;2023-03-20T03:06:31;12.55;;;6.93;;
76417;SDS011;65250;47.602;19.002;2023-03-20T03:09:02;12.73;;;6.78;;
76417;SDS011;65250;47.602;19.002;2023-03-20T03:11:39;15.35;;;7.20;;
76417;SDS011;65250;47.602;19.002;2023-03-20T03:14:12;12.90;;;7.03;;
76417;SDS011;65250;47.602;19.002;2023-03-20T03:16:41;14.43;;;7.32;;
76417;SDS011;65250;47.602;19.002;2023-03-20T03:19:13;11.55;;;6.25;;
76417;SDS011;65250;47.602;19.002;2023-03-20T03:21:43;11.40;;;6.43;;
76417;SDS011;65250;47.602;19.002;2023-03-20T03:24:54;14.93;;;8.48;;
76417;SDS011;65250;47.602;19.002;2023-03-20T03:27:26;14.17;;;8.10;;
76417;SDS011;65250;47.602;19.002;2023-03-20T03:30:03;13.50;;;7.22;;
76417;SDS011;65250;47.602;19.002;2023-03-20T03:32:34;14.55;;;7.15;;
76417;SDS011;65250;47.602;19.002;2023-03-20T03:35:03;15.25;;;7.40;;
76417;SDS011;65250;47.602;19.002;2023-03-20T03:42:54;15.35;;;7.13;;
76417;SDS011;65250;47.602;19.002;2023-03-20T03:45:26;14.35;;;7.15;;
76417;SDS011;65250;47.602;19.002;2023-03-20T03:48:04;13.65;;;7.20;;
76417;SDS011;65250;47.602;19.002;2023-03-20T03:53:04;13.13;;;6.83;;
76417;SDS011;65250;47.602;19.002;2023-03-20T03:55:34;11.85;;;6.68;;
76417;SDS011;65250;47.602;19.002;2023-03-20T03:58:07;11.15;;;6.78;;
76417;SDS011;65250;47.602;19.002;2023-03-20T04:00:37;10.60;;;6.25;;
76417;SDS011;65250;47.602;19.002;2023-03-20T04:03:06;11.23;;;6.80;;
76417;SDS011;65250;47.602;19.002;2023-03-20T04:05:34;11.07;;;7.07;;
76417;SDS011;65250;47.602;19.002;2023-03-20T04:08:03;12.75;;;7.13;;
76417;SDS011;65250;47.602;19.002;2023-03-20T04:10:31;15.57;;;6.90;;
76417;SDS011;65250;47.602;19.002;2023-03-20T04:12:58;12.43;;;6.70;;
76417;SDS011;65250;47.602;19.002;2023-03-20T04:15:25;12.70;;;6.57;;
76417;SDS011;65250;47.602;19.002;2023-03-20T04:17:53;11.83;;;6.87;;
76417;SDS011;65250;47.602;19.002;2023-03-20T04:20:20;14.20;;;7.50;;
76417;SDS011;65250;47.602;19.002;2023-03-20T04:22:47;11.85;;;6.78;;
76417;SDS011;65250;47.602;19.002;2023-03-20T04:25:17;12.77;;;6.70;;
76417;SDS011;65250;47.602;19.002;2023-03-20T04:27:48;12.23;;;6.97;;
76417;SDS011;65250;47.602;19.002;2023-03-20T04:30:15;11.17;;;6.03;;
76417;SDS011;65250;47.602;19.002;2023-03-20T04:32:42;13.60;;;5.95;;
76417;SDS011;65250;47.602;19.002;2023-03-20T04:35:09;10.82;;;5.80;;
76417;SDS011;65250;47.602;19.002;2023-03-20T04:37:36;10.43;;;5.97;;
76417;SDS011;65250;47.602;19.002;2023-03-20T04:40:03;10.65;;;5.90;;
76417;SDS011;65250;47.602;19.002;2023-03-20T04:42:30;10.00;;;5.50;;
76417;SDS011;65250;47.602;19.002;2023-03-20T04:44:57;11.25;;;4.95;;
76417;SDS011;65250;47.602;19.002;2023-03-20T04:47:23;10.57;;;5.90;;
76417;SDS011;65250;47.602;19.002;2023-03-20T04:49:50;10.50;;;6.00;;
76417;SDS011;65250;47.602;19.002;2023-03-20T04:52:17;14.25;;;6.18;;
76417;SDS011;65250;47.602;19.002;2023-03-20T04:54:44;12.30;;;7.37;;
76417;SDS011;65250;47.602;19.002;2023-03-20T04:57:10;10.50;;;6.38;;
76417;SDS011;65250;47.602;19.002;2023-03-20T04:59:37;13.32;;;6.47;;
76417;SDS011;65250;47.602;19.002;2023-03-20T05:02:04;11.57;;;6.10;;
76417;SDS011;65250;47.602;19.002;2023-03-20T05:04:31;10.23;;;6.18;;
76417;SDS011;65250;47.602;19.002;2023-03-20T05:06:57;10.67;;;5.73;;
76417;SDS011;65250;47.602;19.002;2023-03-20T05:09:24;10.25;;;5.25;;
76417;SDS011;65250;47.602;19.002;2023-03-20T05:11:51;11.00;;;4.65;;
76417;SDS011;65250;47.602;19.002;2023-03-20T05:14:18;8.82;;;4.53;;
76417;SDS011;65250;47.602;19.002;2023-03-20T05:16:44;11.38;;;5.47;;
76417;SDS011;65250;47.602;19.002;2023-03-20T05:19:11;9.30;;;4.50;;
76417;SDS011;65250;47.602;19.002;2023-03-20T05:21:38;12.20;;;5.10;;
76417;SDS011;65250;47.602;19.002;2023-03-20T05:24:05;9.65;;;5.00;;
76417;SDS011;65250;47.602;19.002;2023-03-20T05:26:32;11.13;;;4.57;;
76417;SDS011;65250;47.602;19.002;2023-03-20T05:28:59;10.15;;;4.60;;
76417;SDS011;65250;47.602;19.002;2023-03-20T05:31:25;7.53;;;4.10;;
76417;SDS011;65250;47.602;19.002;2023-03-20T05:33:52;10.13;;;4.35;;
76417;SDS011;65250;47.602;19.002;2023-03-20T05:36:19;11.90;;;4.88;;
76417;SDS011;65250;47.602;19.002;2023-03-20T05:38:46;10.35;;;4.90;;
76417;SDS011;65250;47.602;19.002;2023-03-20T05:41:13;9.73;;;4.93;;
76417;SDS011;65250;47.602;19.002;2023-03-20T05:43:39;13.40;;;4.20;;
76417;SDS011;65250;47.602;19.002;2023-03-20T05:46:06;10.10;;;4.32;;
76417;SDS011;65250;47.602;19.002;2023-03-20T05:48:33;11.30;;;4.97;;
76417;SDS011;65250;47.602;19.002;2023-03-20T05:51:00;10.95;;;5.18;;
76417;SDS011;65250;47.602;19.002;2023-03-20T05:53:27;8.65;;;4.88;;
76417;SDS011;65250;47.602;19.002;2023-03-20T05:55:53;6.93;;;4.43;;
76417;SDS011;65250;47.602;19.002;2023-03-20T05:58:20;11.00;;;4.63;;
76417;SDS011;65250;47.602;19.002;2023-03-20T06:00:47;11.82;;;4.85;;
76417;SDS011;65250;47.602;19.002;2023-03-20T06:03:14;10.02;;;5.28;;
76417;SDS011;65250;47.602;19.002;2023-03-20T06:05:41;11.38;;;5.00;;
76417;SDS011;65250;47.602;19.002;2023-03-20T06:08:07;11.53;;;5.40;;
76417;SDS011;65250;47.602;19.002;2023-03-20T06:10:34;21.45;;;7.85;;
76417;SDS011;65250;47.602;19.002;2023-03-20T06:13:01;18.55;;;8.65;;
76417;SDS011;65250;47.602;19.002;2023-03-20T06:15:28;18.38;;;8.55;;
76417;SDS011;65250;47.602;19.002;2023-03-20T06:17:54;17.15;;;9.10;;
76417;SDS011;65250;47.602;19.002;2023-03-20T06:20:22;22.77;;;9.13;;
76417;SDS011;65250;47.602;19.002;2023-03-20T06:22:49;23.00;;;8.48;;
76417;SDS011;65250;47.602;19.002;2023-03-20T06:25:16;19.35;;;8.55;;
76417;SDS011;65250;47.602;19.002;2023-03-20T06:27:44;22.33;;;10.70;;
76417;SDS011;65250;47.602;19.002;2023-03-20T06:30:13;23.42;;;10.57;;
76417;SDS011;65250;47.602;19.002;2023-03-20T06:32:40;26.50;;;12.77;;
76417;SDS011;65250;47.602;19.002;2023-03-20T06:35:07;22.25;;;12.00;;
76417;SDS011;65250;47.602;19.002;2023-03-20T06:37:34;24.75;;;13.43;;
76417;SDS011;65250;47.602;19.002;2023-03-20T06:40:03;27.52;;;13.75;;
76417;SDS011;65250;47.602;19.002;2023-03-20T06:42:30;23.75;;;14.75;;
76417;SDS011;65250;47.602;19.002;2023-03-20T06:44:56;21.27;;;12.67;;
76417;SDS011;65250;47.602;19.002;2023-03-20T06:47:23;22.52;;;11.52;;
76417;SDS011;65250;47.602;19.002;2023-03-20T06:49:50;25.25;;;12.02;;
76417;SDS011;65250;47.602;19.002;2023-03-20T06:52:18;24.25;;;11.02;;
76417;SDS011;65250;47.602;19.002;2023-03-20T06:54:46;25.58;;;11.23;;
76417;SDS011;65250;47.602;19.002;2023-03-20T06:57:13;16.47;;;10.00;;
76417;SDS011;65250;47.602;19.002;2023-03-20T06:59:42;26.55;;;10.60;;
76417;SDS011;65250;47.602;19.002;2023-03-20T07:02:10;22.73;;;10.82;;
76417;SDS011;65250;47.602;19.002;2023-03-20T07:04:37;19.45;;;9.90;;
76417;SDS011;65250;47.602;19.002;2023-03-20T07:07:04;20.40;;;9.77;;
76417;SDS011;65250;47.602;19.002;2023-03-20T07:09:32;27.50;;;11.33;;
76417;SDS011;65250;47.602;19.002;2023-03-20T07:11:59;16.98;;;11.05;;
76417;SDS011;65250;47.602;19.002;2023-03-20T07:14:26;23.92;;;9.25;;
76417;SDS011;65250;47.602;19.002;2023-03-20T07:16:53;23.33;;;9.20;;
76417;SDS011;65250;47.602;19.002;2023-03-20T07:19:21;24.60;;;9.82;;
76417;SDS011;65250;47.602;19.002;2023-03-20T07:21:48;18.57;;;9.23;;
76417;SDS011;65250;47.602;19.002;2023-03-20T07:24:15;15.70;;;9.27;;
76417;SDS011;65250;47.602;19.002;2023-03-20T07:26:42;23.92;;;8.50;;
76417;SDS011;65250;47.602;19.002;2023-03-20T07:29:08;15.30;;;8.70;;
76417;SDS011;65250;47.602;19.002;2023-03-20T07:31:35;13.55;;;7.47;;
76417;SDS011;65250;47.602;19.002;2023-03-20T07:34:03;14.00;;;7.37;;
76417;SDS011;65250;47.602;19.002;2023-03-20T07:36:30;12.32;;;7.43;;
76417;SDS011;65250;47.602;19.002;2023-03-20T07:38:57;18.02;;;7.63;;
76417;SDS011;65250;47.602;19.002;2023-03-20T07:41:23;15.38;;;6.90;;
76417;SDS011;65250;47.602;19.002;2023-03-20T07:43:50;16.00;;;7.60;;
76417;SDS011;65250;47.602;19.002;2023-03-20T07:46:17;12.40;;;7.10;;
76417;SDS011;65250;47.602;19.002;2023-03-20T07:48:44;15.23;;;6.80;;
76417;SDS011;65250;47.602;19.002;2023-03-20T07:51:11;11.38;;;5.50;;
76417;SDS011;65250;47.602;19.002;2023-03-20T07:53:37;11.30;;;6.05;;
76417;SDS011;65250;47.602;19.002;2023-03-20T07:56:07;12.27;;;6.60;;
76417;SDS011;65250;47.602;19.002;2023-03-20T07:58:34;12.70;;;7.37;;
76417;SDS011;65250;47.602;19.002;2023-03-20T08:01:01;9.32;;;5.47;;
76417;SDS011;65250;47.602;19.002;2023-03-20T08:03:29;14.43;;;5.32;;
76417;SDS011;65250;47.602;19.002;2023-03-20T08:05:56;8.88;;;5.38;;
76417;SDS011;65250;47.602;19.002;2023-03-20T08:08:22;13.30;;;5.03;;
76417;SDS011;65250;47.602;19.002;2023-03-20T08:10:49;9.60;;;5.33;;
76417;SDS011;65250;47.602;19.002;2023-03-20T08:13:16;8.50;;;5.13;;
76417;SDS011;65250;47.602;19.002;2023-03-20T08:15:45;9.13;;;5.22;;
76417;SDS011;65250;47.602;19.002;2023-03-20T08:18:12;7.57;;;5.05;;
76417;SDS011;65250;47.602;19.002;2023-03-20T08:20:39;7.90;;;5.13;;
76417;SDS011;65250;47.602;19.002;2023-03-20T08:23:06;10.03;;;4.90;;
76417;SDS011;65250;47.602;19.002;2023-03-20T08:25:33;9.65;;;4.80;;
76417;SDS011;65250;47.602;19.002;2023-03-20T08:28:00;7.60;;;4.85;;
76417;SDS011;65250;47.602;19.002;2023-03-20T08:30:27;9.55;;;4.93;;
76417;SDS011;65250;47.602;19.002;2023-03-20T08:32:54;6.68;;;4.30;;
76417;SDS011;65250;47.602;19.002;2023-03-20T08:35:21;7.63;;;4.63;;
76417;SDS011;65250;47.602;19.002;2023-03-20T08:38:10;12.98;;;5.75;;
76417;SDS011;65250;47.602;19.002;2023-03-20T08:40:41;9.18;;;4.80;;
76417;SDS011;65250;47.602;19.002;2023-03-20T08:43:08;8.45;;;5.10;;
76417;SDS011;65250;47.602;19.002;2023-03-20T08:45:35;8.32;;;4.72;;
76417;SDS011;65250;47.602;19.002;2023-03-20T08:48:02;13.67;;;5.80;;
76417;SDS011;65250;47.602;19.002;2023-03-20T08:50:29;12.15;;;6.13;;
76417;SDS011;65250;47.602;19.002;2023-03-20T08:52:56;14.10;;;5.63;;
76417;SDS011;65250;47.602;19.002;2023-03-20T08:55:22;20.63;;;6.63;;
76417;SDS011;65250;47.602;19.002;2023-03-20T08:57:49;15.38;;;5.65;;
76417;SDS011;65250;47.602;19.002;2023-03-20T09:00:16;25.90;;;5.87;;
76417;SDS011;65250;47.602;19.002;2023-03-20T09:02:45;9.90;;;6.80;;
76417;SDS011;65250;47.602;19.002;2023-03-20T09:05:12;12.55;;;6.75;;
76417;SDS011;65250;47.602;19.002;2023-03-20T09:07:39;11.20;;;6.93;;
76417;SDS011;65250;47.602;19.002;2023-03-20T09:10:06;13.80;;;7.28;;
76417;SDS011;65250;47.602;19.002;2023-03-20T09:12:37;12.67;;;6.07;;
76417;SDS011;65250;47.602;19.002;2023-03-20T09:15:04;12.25;;;5.90;;
76417;SDS011;65250;47.602;19.002;2023-03-20T09:17:32;11.60;;;5.97;;
76417;SDS011;65250;47.602;19.002;2023-03-20T09:19:59;13.07;;;6.32;;
76417;SDS011;65250;47.602;19.002;2023-03-20T09:22:25;10.40;;;6.07;;
76417;SDS011;65250;47.602;19.002;2023-03-20T09:24:52;9.93;;;5.53;;
76417;SDS011;65250;47.602;19.002;2023-03-20T09:27:19;8.90;;;6.03;;
76417;SDS011;65250;47.602;19.002;2023-03-20T09:29:46;11.27;;;6.07;;
76417;SDS011;65250;47.602;19.002;2023-03-20T09:32:14;9.95;;;5.95;;
76417;SDS011;65250;47.602;19.002;2023-03-20T09:34:41;9.70;;;6.00;;
76417;SDS011;65250;47.602;19.002;2023-03-20T09:37:08;8.13;;;5.43;;
76417;SDS011;65250;47.602;19.002;2023-03-20T09:39:35;8.88;;;5.82;;
76417;SDS011;65250;47.602;19.002;2023-03-20T09:42:06;8.45;;;5.65;;
76417;SDS011;65250;47.602;19.002;2023-03-20T09:53:12;14.32;;;6.53;;
76417;SDS011;65250;47.602;19.002;2023-03-20T09:55:43;11.55;;;7.00;;
76417;SDS011;65250;47.602;19.002;2023-03-20T09:58:15;8.93;;;6.68;;
76417;SDS011;65250;47.602;19.002;2023-03-20T10:00:46;12.52;;;6.75;;
76417;SDS011;65250;47.602;19.002;2023-03-20T10:05:44;15.48;;;6.47;;
76417;SDS011;65250;47.602;19.002;2023-03-20T10:08:13;10.15;;;6.50;;
76417;SDS011;65250;47.602;19.002;2023-03-20T10:21:36;9.52;;;5.80;;
76417;SDS011;65250;47.602;19.002;2023-03-20T10:24:15;8.45;;;6.13;;
76417;SDS011;65250;47.602;19.002;2023-03-20T10:26:45;10.38;;;6.20;;
76417;SDS011;65250;47.602;19.002;2023-03-20T10:29:22;34.83;;;7.50;;
76417;SDS011;65250;47.602;19.002;2023-03-20T10:32:01;9.77;;;5.55;;
76417;SDS011;65250;47.602;19.002;2023-03-20T10:42:59;9.00;;;6.20;;
76417;SDS011;65250;47.602;19.002;2023-03-20T10:45:41;10.02;;;6.68;;
76417;SDS011;65250;47.602;19.002;2023-03-20T10:48:15;9.10;;;4.55;;
76417;SDS011;65250;47.602;19.002;2023-03-20T10:50:51;21.83;;;5.90;;
76417;SDS011;65250;47.602;19.002;2023-03-20T10:55:57;9.70;;;6.07;;
76417;SDS011;65250;47.602;19.002;2023-03-20T10:58:29;9.90;;;6.40;;
76417;SDS011;65250;47.602;19.002;2023-03-20T11:00:57;6.93;;;5.95;;
76417;SDS011;65250;47.602;19.002;2023-03-20T11:03:26;8.10;;;6.20;;
76417;SDS011;65250;47.602;19.002;2023-03-20T11:06:01;8.75;;;6.88;;
76417;SDS011;65250;47.602;19.002;2023-03-20T11:08:37;9.13;;;6.30;;
76417;SDS011;65250;47.602;19.002;2023-03-20T11:11:06;11.80;;;6.28;;
76417;SDS011;65250;47.602;19.002;2023-03-20T11:13:42;11.48;;;6.70;;
76417;SDS011;65250;47.602;19.002;2023-03-20T11:16:23;10.02;;;7.15;;
76417;SDS011;65250;47.602;19.002;2023-03-20T11:18:51;8.90;;;6.32;;
76417;SDS011;65250;47.602;19.002;2023-03-20T11:23:55;10.55;;;7.32;;
76417;SDS011;65250;47.602;19.002;2023-03-20T11:26:40;8.70;;;6.00;;
76417;SDS011;65250;47.602;19.002;2023-03-20T11:29:15;11.32;;;7.00;;
76417;SDS011;65250;47.602;19.002;2023-03-20T11:31:47;10.65;;;7.00;;
76417;SDS011;65250;47.602;19.002;2023-03-20T11:36:55;12.45;;;7.38;;
76417;SDS011;65250;47.602;19.002;2023-03-20T11:39:36;14.27;;;7.07;;
76417;SDS011;65250;47.602;19.002;2023-03-20T11:42:18;10.18;;;6.80;;
76417;SDS011;65250;47.602;19.002;2023-03-20T11:45:15;20.00;;;6.93;;
76417;SDS011;65250;47.602;19.002;2023-03-20T11:47:42;13.80;;;7.13;;
76417;SDS011;65250;47.602;19.002;2023-03-20T11:56:12;18.80;;;7.20;;
76417;SDS011;65250;47.602;19.002;2023-03-20T11:59:00;14.40;;;7.45;;
76417;SDS011;65250;47.602;19.002;2023-03-20T12:01:29;10.97;;;7.10;;
76417;SDS011;65250;47.602;19.002;2023-03-20T12:04:11;13.13;;;7.20;;
76417;SDS011;65250;47.602;19.002;2023-03-20T12:11:59;15.50;;;7.70;;
76417;SDS011;65250;47.602;19.002;2023-03-20T12:14:34;12.50;;;7.83;;
76417;SDS011;65250;47.602;19.002;2023-03-20T12:25:24;15.27;;;8.15;;
76417;SDS011;65250;47.602;19.002;2023-03-20T12:35:43;13.48;;;8.85;;
76417;SDS011;65250;47.602;19.002;2023-03-20T12:38:19;13.95;;;8.45;;
76417;SDS011;65250;47.602;19.002;2023-03-20T12:40:52;11.30;;;7.80;;
76417;SDS011;65250;47.602;19.002;2023-03-20T12:43:24;14.10;;;8.25;;
76417;SDS011;65250;47.602;19.002;2023-03-20T12:45:58;12.50;;;8.07;;
76417;SDS011;65250;47.602;19.002;2023-03-20T12:48:59;13.00;;;8.30;;
76417;SDS011;65250;47.602;19.002;2023-03-20T13:10:30;18.15;;;9.07;;
76417;SDS011;65250;47.602;19.002;2023-03-20T13:16:00;15.75;;;9.27;;
76417;SDS011;65250;47.602;19.002;2023-03-20T13:19:22;16.73;;;8.65;;
76417;SDS011;65250;47.602;19.002;2023-03-20T13:21:37;13.00;;;9.10;;
76417;SDS011;65250;47.602;19.002;2023-03-20T13:26:45;14.65;;;9.27;;
76417;SDS011;65250;47.602;19.002;2023-03-20T13:37:08;13.20;;;9.57;;
76417;SDS011;65250;47.602;19.002;2023-03-20T13:42:45;13.85;;;9.15;;
76417;SDS011;65250;47.602;19.002;2023-03-20T13:45:20;11.40;;;9.00;;
76417;SDS011;65250;47.602;19.002;2023-03-20T13:48:43;16.50;;;9.83;;
76417;SDS011;65250;47.602;19.002;2023-03-20T14:02:15;30.83;;;9.57;;
76417;SDS011;65250;47.602;19.002;2023-03-20T14:04:44;16.02;;;10.75;;
76417;SDS011;65250;47.602;19.002;2023-03-20T14:07:26;13.65;;;9.38;;
76417;SDS011;65250;47.602;19.002;2023-03-20T14:12:55;13.65;;;8.38;;
76417;SDS011;65250;47.602;19.002;2023-03-20T14:15:23;16.80;;;8.83;;
76417;SDS011;65250;47.602;19.002;2023-03-20T14:17:52;15.20;;;8.77;;
76417;SDS011;65250;47.602;19.002;2023-03-20T14:20:23;19.45;;;8.15;;
76417;SDS011;65250;47.602;19.002;2023-03-20T14:22:55;15.82;;;8.32;;
76417;SDS011;65250;47.602;19.002;2023-03-20T14:25:22;13.73;;;8.68;;
76417;SDS011;65250;47.602;19.002;2023-03-20T14:27:54;17.27;;;8.80;;
76417;SDS011;65250;47.602;19.002;2023-03-20T14:32:59;19.45;;;8.50;;
76417;SDS011;65250;47.602;19.002;2023-03-20T14:35:35;16.77;;;9.45;;
76417;SDS011;65250;47.602;19.002;2023-03-20T14:48:45;12.65;;;10.35;;
76417;SDS011;65250;47.602;19.002;2023-03-20T14:54:21;18.57;;;9.60;;
76417;SDS011;65250;47.602;19.002;2023-03-20T14:56:47;20.30;;;9.70;;
76417;SDS011;65250;47.602;19.002;2023-03-20T14:59:16;13.98;;;8.57;;
76417;SDS011;65250;47.602;19.002;2023-03-20T15:01:59;13.90;;;8.75;;
76417;SDS011;65250;47.602;19.002;2023-03-20T15:07:14;13.07;;;8.97;;
76417;SDS011;65250;47.602;19.002;2023-03-20T15:09:44;17.30;;;8.85;;
76417;SDS011;65250;47.602;19.002;2023-03-20T15:12:13;17.45;;;8.80;;
76417;SDS011;65250;47.602;19.002;2023-03-20T15:14:44;13.57;;;9.05;;
76417;SDS011;65250;47.602;19.002;2023-03-20T15:17:23;13.38;;;8.48;;
76417;SDS011;65250;47.602;19.002;2023-03-20T15:20:12;12.80;;;8.60;;
76417;SDS011;65250;47.602;19.002;2023-03-20T15:22:51;10.82;;;8.40;;
76417;SDS011;65250;47.602;19.002;2023-03-20T15:25:35;16.05;;;7.82;;
76417;SDS011;65250;47.602;19.002;2023-03-20T15:28:05;10.05;;;8.15;;
76417;SDS011;65250;47.602;19.002;2023-03-20T15:30:35;11.95;;;7.65;;
76417;SDS011;65250;47.602;19.002;2023-03-20T15:33:04;13.97;;;7.33;;
76417;SDS011;65250;47.602;19.002;2023-03-20T15:35:31;11.23;;;7.22;;
76417;SDS011;65250;47.602;19.002;2023-03-20T15:38:03;10.85;;;7.22;;
76417;SDS011;65250;47.602;19.002;2023-03-20T15:40:32;8.07;;;7.00;;
76417;SDS011;65250;47.602;19.002;2023-03-20T15:43:23;9.93;;;6.50;;
76417;SDS011;65250;47.602;19.002;2023-03-20T15:45:51;10.77;;;6.23;;
76417;SDS011;65250;47.602;19.002;2023-03-20T15:48:46;8.73;;;6.30;;
76417;SDS011;65250;47.602;19.002;2023-03-20T15:51:16;8.52;;;6.38;;
76417;SDS011;65250;47.602;19.002;2023-03-20T15:53:45;11.48;;;6.30;;
76417;SDS011;65250;47.602;19.002;2023-03-20T15:56:16;13.40;;;5.30;;
76417;SDS011;65250;47.602;19.002;2023-03-20T15:58:46;8.77;;;5.10;;
76417;SDS011;65250;47.602;19.002;2023-03-20T16:01:19;8.27;;;6.13;;
76417;SDS011;65250;47.602;19.002;2023-03-20T16:03:47;11.38;;;5.30;;
76417;SDS011;65250;47.602;19.002;2023-03-20T16:06:16;6.95;;;4.95;;
76417;SDS011;65250;47.602;19.002;2023-03-20T16:08:54;7.85;;;4.90;;
76417;SDS011;65250;47.602;19.002;2023-03-20T16:11:22;7.27;;;5.10;;
76417;SDS011;65250;47.602;19.002;2023-03-20T16:13:50;11.77;;;5.25;;
76417;SDS011;65250;47.602;19.002;2023-03-20T16:16:21;11.30;;;6.00;;
76417;SDS011;65250;47.602;19.002;2023-03-20T16:18:50;10.82;;;6.28;;
76417;SDS011;65250;47.602;19.002;2023-03-20T16:21:29;10.23;;;5.63;;
76417;SDS011;65250;47.602;19.002;2023-03-20T16:23:58;6.10;;;4.63;;
76417;SDS011;65250;47.602;19.002;2023-03-20T16:26:26;7.63;;;5.30;;
76417;SDS011;65250;47.602;19.002;2023-03-20T16:28:54;10.10;;;5.85;;
76417;SDS011;65250;47.602;19.002;2023-03-20T16:34:00;9.95;;;5.53;;
76417;SDS011;65250;47.602;19.002;2023-03-20T16:36:31;10.90;;;5.10;;
76417;SDS011;65250;47.602;19.002;2023-03-20T16:41:34;7.60;;;4.90;;
76417;SDS011;65250;47.602;19.002;2023-03-20T16:44:06;8.05;;;5.13;;
76417;SDS011;65250;47.602;19.002;2023-03-20T16:46:36;8.18;;;4.90;;
76417;SDS011;65250;47.602;19.002;2023-03-20T16:51:48;8.50;;;5.93;;
76417;SDS011;65250;47.602;19.002;2023-03-20T16:54:18;10.15;;;6.25;;
76417;SDS011;65250;47.602;19.002;2023-03-20T16:56:52;8.10;;;6.22;;
76417;SDS011;65250;47.602;19.002;2023-03-20T16:59:20;9.25;;;5.78;;
76417;SDS011;65250;47.602;19.002;2023-03-20T17:01:49;9.20;;;5.43;;
76417;SDS011;65250;47.602;19.002;2023-03-20T17:04:22;10.60;;;5.85;;
76417;SDS011;65250;47.602;19.002;2023-03-20T17:06:55;9.88;;;5.00;;
76417;SDS011;65250;47.602;19.002;2023-03-20T17:09:25;8.77;;;5.47;;
76417;SDS011;65250;47.602;19.002;2023-03-20T17:12:04;8.57;;;5.40;;
76417;SDS011;65250;47.602;19.002;2023-03-20T17:14:41;7.20;;;4.67;;
76417;SDS011;65250;47.602;19.002;2023-03-20T17:17:17;7.07;;;4.80;;
76417;SDS011;65250;47.602;19.002;2023-03-20T17:19:47;8.60;;;5.53;;
76417;SDS011;65250;47.602;19.002;2023-03-20T17:22:16;9.13;;;5.18;;
76417;SDS011;65250;47.602;19.002;2023-03-20T17:24:50;9.18;;;4.97;;
76417;SDS011;65250;47.602;19.002;2023-03-20T17:27:17;8.93;;;5.03;;
76417;SDS011;65250;47.602;19.002;2023-03-20T17:29:45;12.27;;;6.00;;
76417;SDS011;65250;47.602;19.002;2023-03-20T17:32:18;8.65;;;6.18;;
76417;SDS011;65250;47.602;19.002;2023-03-20T17:34:46;11.98;;;6.80;;
76417;SDS011;65250;47.602;19.002;2023-03-20T17:37:14;15.15;;;7.10;;
76417;SDS011;65250;47.602;19.002;2023-03-20T17:39:43;11.67;;;7.80;;
76417;SDS011;65250;47.602;19.002;2023-03-20T17:42:14;10.70;;;6.43;;
76417;SDS011;65250;47.602;19.002;2023-03-20T17:44:44;12.25;;;6.47;;
76417;SDS011;65250;47.602;19.002;2023-03-20T17:47:15;11.65;;;5.82;;
76417;SDS011;65250;47.602;19.002;2023-03-20T17:49:44;11.07;;;6.38;;
76417;SDS011;65250;47.602;19.002;2023-03-20T17:52:15;14.83;;;7.13;;
76417;SDS011;65250;47.602;19.002;2023-03-20T17:54:49;12.88;;;7.53;;
76417;SDS011;65250;47.602;19.002;2023-03-20T17:59:46;8.43;;;5.65;;
76417;SDS011;65250;47.602;19.002;2023-03-20T18:02:15;10.77;;;5.32;;